createdAt,value
2023-03-20T00:00:47.720Z,31.00
2023-03-20T00:03:17.314Z,27.40
2023-03-20T00:05:45.809Z,24.20
2023-03-20T00:08:14.159Z,24.80
2023-03-20T00:10:42.923Z,30.00
2023-03-20T00:13:14.621Z,28.40
2023-03-20T00:15:43.449Z,21.40
2023-03-20T00:18:18.346Z,27.20
2023-03-20T00:20:46.822Z,25.40
2023-03-20T00:23:15.465Z,23.40
2023-03-20T00:25:43.978Z,19.00
2023-03-20T00:28:39.046Z,23.40
2023-03-20T00:31:10.844Z,15.40
2023-03-20T00:33:40.412Z,15.40
2023-03-20T00:36:10.236Z,21.40
2023-03-20T00:38:38.250Z,20.80
2023-03-20T00:41:17.028Z,23.40
2023-03-20T00:43:45.127Z,33.40
2023-03-20T00:46:13.320Z,15.40
2023-03-20T00:48:43.476Z,30.40
2023-03-20T00:51:11.589Z,24.40
2023-03-20T00:53:39.960Z,17.20
2023-03-20T00:56:08.733Z,6.80
2023-03-20T00:58:36.977Z,13.20
2023-03-20T01:01:05.142Z,10.00
2023-03-20T01:03:33.296Z,7.40
2023-03-20T01:06:02.862Z,5.40
2023-03-20T01:08:31.001Z,9.00
2023-03-20T01:10:59.282Z,8.80
2023-03-20T01:13:28.035Z,9.00
2023-03-20T01:15:56.656Z,5.60
2023-03-20T01:18:25.706Z,7.80
2023-03-20T01:20:53.975Z,9.80
2023-03-20T01:23:24.623Z,7.00
2023-03-20T01:25:52.594Z,6.20
2023-03-20T01:28:23.322Z,6.80
2023-03-20T01:30:52.664Z,7.00
2023-03-20T01:33:21.358Z,7.00
2023-03-20T01:35:50.142Z,4.00
2023-03-20T01:38:20.229Z,6.40
2023-03-20T01:40:55.672Z,3.40
2023-03-20T01:43:24.356Z,6.00
2023-03-20T01:45:58.725Z,6.00
2023-03-20T01:48:28.227Z,7.00
2023-03-20T01:50:56.592Z,4.00
2023-03-20T01:53:26.019Z,7.00
2023-03-20T01:56:00.892Z,6.40
2023-03-20T01:58:30.331Z,8.20
2023-03-20T02:00:58.641Z,7.20
2023-03-20T02:03:27.487Z,9.20
2023-03-20T02:05:55.750Z,9.20
2023-03-20T02:08:26.265Z,8.20
2023-03-20T02:10:55.708Z,7.00
2023-03-20T02:13:24.091Z,6.00
2023-03-20T02:16:00.752Z,6.60
2023-03-20T02:18:29.002Z,7.00
2023-03-20T02:21:54.396Z,6.60
2023-03-20T02:25:02.449Z,8.60
2023-03-20T02:27:34.420Z,6.00
2023-03-20T02:30:24.826Z,5.20
2023-03-20T02:33:25.296Z,6.00
2023-03-20T02:36:22.278Z,5.20
2023-03-20T02:39:05.574Z,9.20
2023-03-20T02:41:38.007Z,4.40
2023-03-20T02:44:12.149Z,7.00
2023-03-20T02:46:45.802Z,7.00
2023-03-20T02:49:19.564Z,6.80
2023-03-20T02:51:51.364Z,9.20
2023-03-20T02:54:24.010Z,7.40
2023-03-20T02:56:55.140Z,7.00
2023-03-20T02:59:27.860Z,6.40
2023-03-20T03:01:57.677Z,7.00
2023-03-20T03:04:27.450Z,6.40
2023-03-20T03:06:56.114Z,3.80
2023-03-20T03:09:27.118Z,5.20
2023-03-20T03:11:58.008Z,6.00
2023-03-20T03:14:31.065Z,4.00
2023-03-20T03:16:59.692Z,5.60
2023-03-20T03:19:28.434Z,6.00
2023-03-20T03:21:56.514Z,7.00
2023-03-20T03:24:40.226Z,7.00
2023-03-20T03:27:14.357Z,8.20
2023-03-20T03:29:42.429Z,4.80
2023-03-20T03:32:22.766Z,6.60
2023-03-20T03:34:51.379Z,6.00
2023-03-20T03:37:22.685Z,1.80
2023-03-20T03:39:52.833Z,3.60
2023-03-20T03:42:23.571Z,6.40
2023-03-20T03:44:56.943Z,6.00
2023-03-20T03:47:26.822Z,6.00
2023-03-20T03:49:56.897Z,3.40
2023-03-20T03:52:28.642Z,5.20
2023-03-20T03:55:00.292Z,7.00
2023-03-20T03:57:33.551Z,5.20
2023-03-20T04:00:01.614Z,9.20
2023-03-20T04:02:29.668Z,6.20
2023-03-20T04:04:57.785Z,8.60
2023-03-20T04:07:27.402Z,6.40
2023-03-20T04:09:57.563Z,5.20
2023-03-20T04:12:37.657Z,4.00
2023-03-20T04:15:06.578Z,6.80
2023-03-20T04:17:37.605Z,6.60
2023-03-20T04:20:07.698Z,6.20
2023-03-20T04:22:36.090Z,7.00
2023-03-20T04:25:08.792Z,6.00
2023-03-20T04:27:38.353Z,6.60
2023-03-20T04:30:10.146Z,2.40
2023-03-20T04:32:38.255Z,6.00
2023-03-20T04:35:07.427Z,7.00
2023-03-20T04:37:35.449Z,7.80
2023-03-20T04:40:04.592Z,6.00
2023-03-20T04:42:32.631Z,6.80
2023-03-20T04:45:02.117Z,5.80
2023-03-20T04:47:30.115Z,6.20
2023-03-20T04:49:58.451Z,9.00
2023-03-20T04:52:26.580Z,8.20
2023-03-20T04:54:54.612Z,6.60
2023-03-20T04:57:22.672Z,4.80
2023-03-20T04:59:51.138Z,9.80
2023-03-20T05:02:20.817Z,3.00
2023-03-20T05:04:51.035Z,7.00
2023-03-20T05:07:19.244Z,7.00
2023-03-20T05:09:47.856Z,6.20
2023-03-20T05:12:15.980Z,4.00
2023-03-20T05:14:44.453Z,7.60
2023-03-20T05:17:12.565Z,6.00
2023-03-20T05:19:43.588Z,14.60
2023-03-20T05:22:15.817Z,6.00
2023-03-20T05:24:43.940Z,6.20
2023-03-20T05:27:11.982Z,7.00
2023-03-20T05:29:39.981Z,6.20
2023-03-20T05:32:08.559Z,2.20
2023-03-20T05:34:36.846Z,4.40
2023-03-20T05:37:06.305Z,6.20
2023-03-20T05:39:34.385Z,8.60
2023-03-20T05:42:02.500Z,9.80
2023-03-20T05:44:30.893Z,6.00
2023-03-20T05:46:58.974Z,8.20
2023-03-20T05:49:27.438Z,7.00
2023-03-20T05:51:55.807Z,6.40
2023-03-20T05:54:25.292Z,8.60
2023-03-20T05:56:55.713Z,8.20
2023-03-20T05:59:25.309Z,10.00
2023-03-20T06:01:53.456Z,8.80
2023-03-20T06:04:21.924Z,5.60
2023-03-20T06:06:49.942Z,8.20
2023-03-20T06:09:18.216Z,6.80
2023-03-20T06:11:49.128Z,10.00
2023-03-20T06:14:17.268Z,7.00
2023-03-20T06:16:45.554Z,4.80
2023-03-20T06:19:13.898Z,9.00
2023-03-20T06:21:42.596Z,6.20
2023-03-20T06:24:10.802Z,8.40
2023-03-20T06:26:38.787Z,4.00
2023-03-20T06:29:08.821Z,8.20
2023-03-20T06:31:36.899Z,7.80
2023-03-20T06:34:05.245Z,9.80
2023-03-20T06:36:35.166Z,3.00
2023-03-20T06:39:03.929Z,7.00
2023-03-20T06:41:35.000Z,7.20
2023-03-20T06:44:04.005Z,6.60
2023-03-20T06:46:33.622Z,9.00
2023-03-20T06:49:03.997Z,6.40
2023-03-20T06:51:33.880Z,10.00
2023-03-20T06:54:02.586Z,7.80
2023-03-20T06:56:31.210Z,9.40
2023-03-20T06:58:59.212Z,7.00
2023-03-20T07:01:28.466Z,5.60
2023-03-20T07:03:57.936Z,7.80
2023-03-20T07:06:26.691Z,3.80
2023-03-20T07:08:54.938Z,7.40
2023-03-20T07:11:25.213Z,6.40
2023-03-20T07:13:53.199Z,9.00
2023-03-20T07:16:21.323Z,11.20
2023-03-20T07:18:49.414Z,7.00
2023-03-20T07:21:23.406Z,4.00
2023-03-20T07:23:51.784Z,9.40
2023-03-20T07:26:19.823Z,8.60
2023-03-20T07:28:47.910Z,4.80
2023-03-20T07:31:21.208Z,4.40
2023-03-20T07:33:49.437Z,6.60
2023-03-20T07:36:17.843Z,6.00
2023-03-20T07:38:47.371Z,5.00
2023-03-20T07:41:15.486Z,6.40
2023-03-20T07:43:44.783Z,7.00
2023-03-20T07:46:13.511Z,6.80
2023-03-20T07:48:41.696Z,3.00
2023-03-20T07:51:09.706Z,6.40
2023-03-20T07:53:37.764Z,8.00
2023-03-20T07:56:08.657Z,9.00
2023-03-20T07:58:36.984Z,8.20
2023-03-20T08:01:05.238Z,6.40
2023-03-20T08:03:34.090Z,3.80
2023-03-20T08:06:04.314Z,7.80
2023-03-20T08:08:32.517Z,1.00
2023-03-20T08:11:01.042Z,1.00
2023-03-20T08:13:30.512Z,8.20
2023-03-20T08:15:59.649Z,6.40
2023-03-20T08:18:28.173Z,4.00
2023-03-20T08:20:57.725Z,6.00
2023-03-20T08:23:27.394Z,6.00
2023-03-20T08:25:56.429Z,6.60
2023-03-20T08:28:40.022Z,6.00
2023-03-20T08:31:14.168Z,8.20
2023-03-20T08:33:42.929Z,10.00
2023-03-20T08:36:12.179Z,17.20
2023-03-20T08:38:41.615Z,16.80
2023-03-20T08:41:10.468Z,42.20
2023-03-20T08:43:39.830Z,42.00
2023-03-20T08:46:08.742Z,31.00
2023-03-20T08:48:38.372Z,16.00
2023-03-20T08:51:07.549Z,25.20
2023-03-20T08:53:35.641Z,9.40
2023-03-20T08:56:03.799Z,8.00
2023-03-20T08:58:43.012Z,7.60
2023-03-20T09:01:12.755Z,6.60
2023-03-20T09:03:42.310Z,7.40
2023-03-20T09:06:11.314Z,4.40
2023-03-20T09:08:39.589Z,3.00
2023-03-20T09:11:08.135Z,4.00
2023-03-20T09:13:36.802Z,3.00
2023-03-20T09:16:06.976Z,6.00
2023-03-20T09:18:36.394Z,4.00
2023-03-20T09:21:06.764Z,4.00
2023-03-20T09:23:35.148Z,4.40
2023-03-20T09:26:03.427Z,4.40
2023-03-20T09:28:31.935Z,4.40
2023-03-20T09:31:00.179Z,7.80
2023-03-20T09:33:28.383Z,5.20
2023-03-20T09:35:57.620Z,7.00
2023-03-20T09:38:27.150Z,6.00
2023-03-20T09:40:56.323Z,5.60
2023-03-20T09:43:30.442Z,7.00
2023-03-20T09:46:04.496Z,6.40
2023-03-20T09:48:36.360Z,6.60
2023-03-20T09:51:06.655Z,5.20
2023-03-20T09:53:38.253Z,2.80
2023-03-20T09:56:07.053Z,6.00
2023-03-20T09:58:35.937Z,8.20
2023-03-20T10:01:05.331Z,3.60
2023-03-20T10:03:38.598Z,5.60
2023-03-20T10:06:09.130Z,4.40
2023-03-20T10:08:39.394Z,4.80
2023-03-20T10:11:16.105Z,9.60
2023-03-20T10:13:56.353Z,6.00
2023-03-20T10:16:29.886Z,6.60
2023-03-20T10:19:02.640Z,6.80
2023-03-20T10:21:34.036Z,4.80
2023-03-20T10:24:04.571Z,6.60
2023-03-20T10:26:34.227Z,5.20
2023-03-20T10:29:03.691Z,6.60
2023-03-20T10:31:36.797Z,6.00
2023-03-20T10:34:19.020Z,4.00
2023-03-20T10:36:54.214Z,4.00
2023-03-20T10:39:30.008Z,6.40
2023-03-20T10:42:00.893Z,6.00
2023-03-20T10:44:31.260Z,6.60
2023-03-20T10:46:59.321Z,1.00
2023-03-20T10:49:33.476Z,9.00
2023-03-20T10:52:02.918Z,5.20
2023-03-20T10:54:33.323Z,9.00
2023-03-20T10:57:02.137Z,8.20
2023-03-20T10:59:32.652Z,8.60
2023-03-20T11:02:01.656Z,7.00
2023-03-20T11:04:30.281Z,6.20
2023-03-20T11:07:01.382Z,5.20
2023-03-20T11:09:31.329Z,6.40
2023-03-20T11:12:01.732Z,7.00
2023-03-20T11:14:34.408Z,9.00
2023-03-20T11:17:04.065Z,7.00
2023-03-20T11:19:34.638Z,9.20
2023-03-20T11:22:08.591Z,7.40
2023-03-20T11:24:38.367Z,7.00
2023-03-20T11:27:09.103Z,4.00
2023-03-20T11:29:37.600Z,3.20
2023-03-20T11:32:08.053Z,4.40
2023-03-20T11:34:38.590Z,6.40
2023-03-20T11:37:10.825Z,6.20
2023-03-20T11:39:40.228Z,7.00
2023-03-20T11:42:23.779Z,6.80
2023-03-20T11:44:58.956Z,4.40
2023-03-20T11:47:27.828Z,4.00
2023-03-20T11:49:56.975Z,7.00
2023-03-20T11:52:27.970Z,6.00
2023-03-20T11:54:57.413Z,7.00
2023-03-20T11:57:35.078Z,3.00
2023-03-20T12:00:08.608Z,2.20
2023-03-20T12:02:37.711Z,4.00
2023-03-20T12:05:20.673Z,3.40
2023-03-20T12:07:49.670Z,4.00
2023-03-20T12:10:19.411Z,0.00
2023-03-20T12:12:51.286Z,3.00
2023-03-20T12:15:20.434Z,4.00
2023-03-20T12:17:49.907Z,2.60
2023-03-20T12:20:31.869Z,4.00
2023-03-20T12:23:04.128Z,1.00
2023-03-20T12:25:36.534Z,3.40
2023-03-20T12:28:08.004Z,4.00
2023-03-20T12:30:51.455Z,3.00
2023-03-20T12:33:22.560Z,3.00
2023-03-20T12:35:51.610Z,3.40
2023-03-20T12:38:25.479Z,3.00
2023-03-20T12:40:56.558Z,2.20
2023-03-20T12:43:27.498Z,3.00
2023-03-20T12:45:58.125Z,3.20
2023-03-20T12:48:49.918Z,0.00
2023-03-20T12:51:20.708Z,4.00
2023-03-20T12:54:29.326Z,4.00
2023-03-20T12:57:04.125Z,1.00
2023-03-20T12:59:38.621Z,3.00
2023-03-20T13:02:15.484Z,4.00
2023-03-20T13:04:48.506Z,3.75
2023-03-20T13:07:19.630Z,4.00
2023-03-20T13:10:02.119Z,6.40
2023-03-20T13:12:36.870Z,5.20
2023-03-20T13:15:15.337Z,6.00
2023-03-20T13:17:46.595Z,6.60
2023-03-20T13:20:23.062Z,9.60
2023-03-20T13:22:58.491Z,4.00
2023-03-20T13:25:35.847Z,6.00
2023-03-20T13:28:06.531Z,6.20
2023-03-20T13:30:38.676Z,6.00
2023-03-20T13:33:10.918Z,6.00
2023-03-20T13:35:43.809Z,6.00
2023-03-20T13:38:15.096Z,4.00
2023-03-20T13:40:44.743Z,5.60
2023-03-20T13:43:20.989Z,4.00
2023-03-20T13:45:50.802Z,6.00
2023-03-20T13:48:29.466Z,6.60
2023-03-20T13:51:03.716Z,5.60
2023-03-20T13:53:35.061Z,6.00
2023-03-20T13:56:08.990Z,3.00
2023-03-20T13:58:47.729Z,1.40
2023-03-20T14:01:21.671Z,4.00
2023-03-20T14:03:50.183Z,5.60
2023-03-20T14:06:20.138Z,4.00
2023-03-20T14:08:54.445Z,4.00
2023-03-20T14:11:35.371Z,3.80
2023-03-20T14:14:08.568Z,1.00
2023-03-20T14:16:38.495Z,1.00
2023-03-20T14:19:13.329Z,3.00
2023-03-20T14:21:43.432Z,3.00
2023-03-20T14:24:12.300Z,1.00
2023-03-20T14:26:41.965Z,1.00
2023-03-20T14:29:34.691Z,1.80
2023-03-20T14:32:31.324Z,1.00
2023-03-20T14:35:01.617Z,1.00
2023-03-20T14:37:38.281Z,1.00
2023-03-20T14:40:14.421Z,1.00
2023-03-20T14:42:52.278Z,0.20
2023-03-20T14:45:37.703Z,2.60
2023-03-20T14:48:46.123Z,1.00
2023-03-20T14:51:42.533Z,1.00
2023-03-20T14:54:37.338Z,3.00
2023-03-20T14:57:12.974Z,2.20
2023-03-20T14:59:41.172Z,3.00
2023-03-20T15:02:25.225Z,3.00
2023-03-20T15:04:54.687Z,3.00
2023-03-20T15:07:25.451Z,4.00
2023-03-20T15:09:55.024Z,3.00
2023-03-20T15:12:26.211Z,3.60
2023-03-20T15:14:57.074Z,3.20
2023-03-20T15:17:27.716Z,1.40
2023-03-20T15:20:04.523Z,1.00
2023-03-20T15:22:35.138Z,3.00
2023-03-20T15:25:03.258Z,3.00
2023-03-20T15:27:32.060Z,0.40
2023-03-20T15:30:02.090Z,4.00
2023-03-20T15:32:30.608Z,3.00
2023-03-20T15:34:58.863Z,3.20
2023-03-20T15:37:28.739Z,3.00
2023-03-20T15:39:59.253Z,4.00
2023-03-20T15:42:27.734Z,3.00
2023-03-20T15:44:56.330Z,3.40
2023-03-20T15:47:24.784Z,3.00
2023-03-20T15:49:54.318Z,1.00
2023-03-20T15:52:29.191Z,3.60
2023-03-20T15:54:59.230Z,1.00
2023-03-20T15:57:31.450Z,1.80
2023-03-20T16:00:00.796Z,3.00
2023-03-20T16:02:29.710Z,1.80
2023-03-20T16:04:59.087Z,3.00
2023-03-20T16:07:28.973Z,4.00
2023-03-20T16:09:58.599Z,4.00
2023-03-20T16:12:27.649Z,3.60
2023-03-20T16:14:55.977Z,2.20
2023-03-20T16:17:26.407Z,1.00
2023-03-20T16:19:56.985Z,4.00
2023-03-20T16:22:26.484Z,2.60
2023-03-20T16:24:58.087Z,3.00
2023-03-20T16:27:30.066Z,1.00
2023-03-20T16:30:02.490Z,1.00
2023-03-20T16:32:35.648Z,1.00
2023-03-20T16:35:06.227Z,3.00
2023-03-20T16:37:38.775Z,1.40
2023-03-20T16:40:16.113Z,1.00
2023-03-20T16:42:45.630Z,1.00
2023-03-20T16:45:21.346Z,1.00
2023-03-20T16:47:49.858Z,1.00
2023-03-20T16:50:21.971Z,1.00
2023-03-20T16:53:04.737Z,0.80
2023-03-20T16:55:34.535Z,3.00
2023-03-20T16:58:05.438Z,3.00
2023-03-20T17:00:36.299Z,9.00
2023-03-20T17:03:13.094Z,8.00
2023-03-20T17:05:53.849Z,5.40
2023-03-20T17:08:29.216Z,9.00
2023-03-20T17:10:59.064Z,7.20
2023-03-20T17:13:28.512Z,9.00
2023-03-20T17:15:56.726Z,10.40
2023-03-20T17:18:24.810Z,4.40
2023-03-20T17:20:54.636Z,8.20
2023-03-20T17:23:23.193Z,1.40
2023-03-20T17:25:51.751Z,3.00
2023-03-20T17:28:22.482Z,12.40
2023-03-20T17:30:52.754Z,14.00
2023-03-20T17:33:22.072Z,7.60
2023-03-20T17:35:53.037Z,4.40
2023-03-20T17:38:22.810Z,14.00
2023-03-20T17:40:51.225Z,8.60
2023-03-20T17:43:20.587Z,12.40
2023-03-20T17:45:48.709Z,7.60
2023-03-20T17:48:20.556Z,15.20
2023-03-20T17:50:50.309Z,17.60
2023-03-20T17:53:19.240Z,8.00
2023-03-20T17:55:47.358Z,12.20
2023-03-20T17:58:16.937Z,10.20
2023-03-20T18:00:45.154Z,6.40
2023-03-20T18:03:15.385Z,8.80
2023-03-20T18:05:44.990Z,41.60
2023-03-20T18:08:17.127Z,42.60
2023-03-20T18:10:46.071Z,18.40
2023-03-20T18:13:14.224Z,16.40
2023-03-20T18:15:44.524Z,31.40
2023-03-20T18:18:13.526Z,35.00
2023-03-20T18:20:42.284Z,15.40
2023-03-20T18:23:12.963Z,18.00
2023-03-20T18:25:41.199Z,19.00
2023-03-20T18:28:13.434Z,16.80
2023-03-20T18:30:42.270Z,13.00
2023-03-20T18:33:10.521Z,33.00
2023-03-20T18:35:39.177Z,35.80
2023-03-20T18:38:09.345Z,18.40
2023-03-20T18:40:39.099Z,15.20
2023-03-20T18:43:07.280Z,32.80
2023-03-20T18:45:35.352Z,23.60
2023-03-20T18:48:04.198Z,34.00
2023-03-20T18:50:36.581Z,29.40
2023-03-20T18:53:05.790Z,24.80
2023-03-20T18:55:33.945Z,26.20
2023-03-20T18:58:06.248Z,24.20
2023-03-20T19:00:37.995Z,27.80
2023-03-20T19:03:06.342Z,31.00
2023-03-20T19:05:34.546Z,17.40
2023-03-20T19:08:03.564Z,33.40
2023-03-20T19:10:33.969Z,16.00
2023-03-20T19:13:05.442Z,9.60
2023-03-20T19:15:35.777Z,18.40
2023-03-20T19:18:04.031Z,15.00
2023-03-20T19:20:36.208Z,32.20
2023-03-20T19:23:06.927Z,41.20
2023-03-20T19:25:35.033Z,33.00
2023-03-20T19:28:05.634Z,37.00
2023-03-20T19:30:35.288Z,32.80
2023-03-20T19:33:03.676Z,26.80
2023-03-20T19:36:11.897Z,40.40
2023-03-20T19:38:21.409Z,23.60
2023-03-20T19:40:52.890Z,40.20
2023-03-20T19:43:22.598Z,40.80
2023-03-20T19:45:52.045Z,41.20
2023-03-20T19:48:21.105Z,23.60
2023-03-20T19:50:51.301Z,16.80
2023-03-20T19:53:21.008Z,18.00
2023-03-20T19:55:49.144Z,39.00
2023-03-20T19:58:17.346Z,31.60
2023-03-20T20:00:58.960Z,27.00
2023-03-20T20:03:27.839Z,23.80
2023-03-20T20:05:55.962Z,24.80
2023-03-20T20:08:43.450Z,26.60
2023-03-20T20:11:14.626Z,25.00
2023-03-20T20:14:04.279Z,37.60
2023-03-20T20:16:33.170Z,32.00
2023-03-20T20:19:01.403Z,33.20
2023-03-20T20:24:17.966Z,27.20
2023-03-20T20:27:19.264Z,38.40
2023-03-20T20:29:39.240Z,15.20
2023-03-20T20:32:10.268Z,35.80
2023-03-20T20:40:18.260Z,15.40
2023-03-20T20:42:49.277Z,12.80
2023-03-20T20:45:17.338Z,13.80
2023-03-20T20:47:47.687Z,33.40
2023-03-20T20:50:16.592Z,32.40
2023-03-20T20:52:44.655Z,29.60
2023-03-20T20:55:23.143Z,21.00
2023-03-20T20:57:52.210Z,33.40
2023-03-20T21:00:21.317Z,32.80
2023-03-20T21:02:50.944Z,10.40
2023-03-20T21:05:19.854Z,28.60
2023-03-20T21:07:48.828Z,12.20
2023-03-20T21:10:18.639Z,16.40
2023-03-20T21:12:58.438Z,11.40
2023-03-20T21:15:27.909Z,11.40
2023-03-20T21:18:01.559Z,19.80
2023-03-20T21:20:30.243Z,17.60
2023-03-20T21:22:58.378Z,8.20
2023-03-20T21:25:39.692Z,20.40
2023-03-20T21:28:09.936Z,1.80
2023-03-20T21:30:46.737Z,1.40
2023-03-20T21:33:26.216Z,14.00
2023-03-20T21:35:54.677Z,3.00
2023-03-20T21:38:58.464Z,3.00
2023-03-20T21:41:11.324Z,3.00
2023-03-20T21:43:39.919Z,16.60
2023-03-20T21:49:43.657Z,11.40
2023-03-20T21:52:43.979Z,9.80
2023-03-20T22:03:10.288Z,3.00
2023-03-20T22:06:45.700Z,2.20
2023-03-20T22:09:31.014Z,1.00
2023-03-20T22:12:01.856Z,3.40
2023-03-20T22:26:28.535Z,10.00
2023-03-20T22:31:43.394Z,10.80
2023-03-20T22:34:30.885Z,10.00
2023-03-20T22:37:40.788Z,15.80
2023-03-20T22:45:11.985Z,3.00
2023-03-20T22:47:40.633Z,3.80
2023-03-20T22:50:10.950Z,3.00
2023-03-20T22:52:48.513Z,3.00
2023-03-20T22:55:18.608Z,1.40
2023-03-20T22:58:04.041Z,0.80
2023-03-20T23:00:34.934Z,3.00
2023-03-20T23:03:19.535Z,11.00
2023-03-20T23:05:51.677Z,11.00
2023-03-20T23:08:19.800Z,11.40
2023-03-20T23:10:49.916Z,11.40
2023-03-20T23:13:18.586Z,10.60
2023-03-20T23:15:50.676Z,4.00
2023-03-20T23:18:19.380Z,5.80
2023-03-20T23:20:47.624Z,5.40
2023-03-20T23:23:15.719Z,2.60
2023-03-20T23:25:45.383Z,15.80
2023-03-20T23:28:14.954Z,16.80
2023-03-20T23:30:49.780Z,3.40
2023-03-20T23:33:22.494Z,5.40
2023-03-20T23:35:55.170Z,10.00
2023-03-20T23:38:23.475Z,5.40
2023-03-20T23:40:51.695Z,9.00
2023-03-20T23:43:21.257Z,6.20
2023-03-20T23:45:49.504Z,11.40
2023-03-20T23:48:18.508Z,17.20
2023-03-20T23:50:53.340Z,10.00
2023-03-20T23:53:22.035Z,3.80
2023-03-20T23:55:50.482Z,4.00
2023-03-20T23:58:19.769Z,4.20
